sensor_id;sensor_type;location;lat;lon;timestamp;pressure;altitude;pressure_sealevel;temperature;humidity
40982;BME280;26708;50.304;19.028;2023-05-17T00:00:17;98010.72;;;13.32;71.16
40982;BME280;26708;50.304;19.028;2023-05-17T00:02:22;98007.16;;;13.36;71.23
40982;BME280;26708;50.304;19.028;2023-05-17T00:04:27;98006.38;;;13.31;71.01
40982;BME280;26708;50.304;19.028;2023-05-17T00:06:33;97941.44;;;12.95;71.15
40982;BME280;26708;50.304;19.028;2023-05-17T00:08:37;98007.88;;;13.41;71.33
40982;BME280;26708;50.304;19.028;2023-05-17T00:10:43;98018.28;;;13.45;70.87
40982;BME280;26708;50.304;19.028;2023-05-17T00:12:47;98015.66;;;13.45;70.30
40982;BME280;26708;50.304;19.028;2023-05-17T00:14:54;98017.50;;;13.42;69.99
40982;BME280;26708;50.304;19.028;2023-05-17T00:16:59;97992.47;;;13.26;70.18
40982;BME280;26708;50.304;19.028;2023-05-17T00:19:04;97931.06;;;12.89;70.62
40982;BME280;26708;50.304;19.028;2023-05-17T00:21:09;98024.44;;;13.46;70.46
40982;BME280;26708;50.304;19.028;2023-05-17T00:23:14;98014.72;;;13.48;70.34
40982;BME280;26708;50.304;19.028;2023-05-17T00:25:34;97998.25;;;13.41;70.14
40982;BME280;26708;50.304;19.028;2023-05-17T00:27:53;98012.91;;;13.51;70.09
40982;BME280;26708;50.304;19.028;2023-05-17T00:30:15;98007.63;;;13.53;70.03
40982;BME280;26708;50.304;19.028;2023-05-17T00:32:35;97737.47;;;11.80;70.00
40982;BME280;26708;50.304;19.028;2023-05-17T00:34:54;98005.00;;;13.53;70.06
40982;BME280;26708;50.304;19.028;2023-05-17T00:37:14;98010.28;;;13.51;69.92
40982;BME280;26708;50.304;19.028;2023-05-17T00:39:33;98006.88;;;13.46;70.08
40982;BME280;26708;50.304;19.028;2023-05-17T00:41:39;98008.69;;;13.44;70.10
40982;BME280;26708;50.304;19.028;2023-05-17T00:43:44;98011.34;;;13.43;69.99
40982;BME280;26708;50.304;19.028;2023-05-17T00:45:51;98009.69;;;13.39;69.96
40982;BME280;26708;50.304;19.028;2023-05-17T00:47:56;98007.91;;;13.39;70.27
40982;BME280;26708;50.304;19.028;2023-05-17T00:50:01;97906.94;;;12.72;70.08
40982;BME280;26708;50.304;19.028;2023-05-17T00:52:06;98000.97;;;13.37;70.07
40982;BME280;26708;50.304;19.028;2023-05-17T00:54:12;97984.97;;;13.06;69.96
40982;BME280;26708;50.304;19.028;2023-05-17T00:56:17;97961.34;;;13.08;70.05
40982;BME280;26708;50.304;19.028;2023-05-17T00:58:23;98009.69;;;13.39;69.79
40982;BME280;26708;50.304;19.028;2023-05-17T01:00:28;98013.13;;;13.42;69.99
40982;BME280;26708;50.304;19.028;2023-05-17T01:02:51;98004.31;;;13.43;70.08
40982;BME280;26708;50.304;19.028;2023-05-17T01:05:10;97966.91;;;13.32;70.36
40982;BME280;26708;50.304;19.028;2023-05-17T01:07:30;98000.72;;;13.47;70.01
40982;BME280;26708;50.304;19.028;2023-05-17T01:09:49;98006.88;;;13.46;69.83
40982;BME280;26708;50.304;19.028;2023-05-17T01:12:28;97933.47;;;12.99;69.85
40982;BME280;26708;50.304;19.028;2023-05-17T01:15:06;98009.69;;;13.39;69.89
40982;BME280;26708;50.304;19.028;2023-05-17T01:17:39;98002.72;;;13.38;70.28
40982;BME280;26708;50.304;19.028;2023-05-17T01:20:16;97924.88;;;12.93;70.30
40982;BME280;26708;50.304;19.028;2023-05-17T01:22:44;97979.06;;;13.38;70.33
40982;BME280;26708;50.304;19.028;2023-05-17T01:25:25;97980.81;;;13.37;70.30
40982;BME280;26708;50.304;19.028;2023-05-17T01:27:53;97877.22;;;12.71;70.56
40982;BME280;26708;50.304;19.028;2023-05-17T01:30:19;97994.75;;;13.41;70.58
40982;BME280;26708;50.304;19.028;2023-05-17T01:32:40;97998.16;;;13.44;70.43
40982;BME280;26708;50.304;19.028;2023-05-17T01:35:03;97978.25;;;13.34;70.34
40982;BME280;26708;50.304;19.028;2023-05-17T01:37:24;98003.41;;;13.46;70.60
40982;BME280;26708;50.304;19.028;2023-05-17T01:39:44;97916.16;;;12.91;70.38
40982;BME280;26708;50.304;19.028;2023-05-17T01:42:11;98007.75;;;13.47;70.71
40982;BME280;26708;50.304;19.028;2023-05-17T01:44:47;97995.63;;;13.40;70.97
40982;BME280;26708;50.304;19.028;2023-05-17T01:47:20;98015.41;;;13.57;70.41
40982;BME280;26708;50.304;19.028;2023-05-17T01:50:00;98004.91;;;13.56;70.46
40982;BME280;26708;50.304;19.028;2023-05-17T01:52:30;97941.69;;;13.25;70.37
40982;BME280;26708;50.304;19.028;2023-05-17T01:55:04;97939.97;;;13.23;70.34
40982;BME280;26708;50.304;19.028;2023-05-17T01:57:34;97996.09;;;13.58;70.72
40982;BME280;26708;50.304;19.028;2023-05-17T01:59:59;97999.66;;;13.56;70.71
40982;BME280;26708;50.304;19.028;2023-05-17T02:02:16;98001.44;;;13.55;70.71
40982;BME280;26708;50.304;19.028;2023-05-17T02:04:22;98001.44;;;13.55;70.77
40982;BME280;26708;50.304;19.028;2023-05-17T02:06:27;98013.66;;;13.56;70.92
40982;BME280;26708;50.304;19.028;2023-05-17T02:08:32;98025.03;;;13.57;70.92
40982;BME280;26708;50.304;19.028;2023-05-17T02:10:37;97935.19;;;13.00;70.83
40982;BME280;26708;50.304;19.028;2023-05-17T02:12:41;98035.53;;;13.58;70.87
40982;BME280;26708;50.304;19.028;2023-05-17T02:14:47;98012.28;;;13.40;70.71
40982;BME280;26708;50.304;19.028;2023-05-17T02:16:54;98040.94;;;13.51;70.90
40982;BME280;26708;50.304;19.028;2023-05-17T02:18:58;98034.81;;;13.52;71.05
40982;BME280;26708;50.304;19.028;2023-05-17T02:21:04;98004.47;;;13.37;71.10
40982;BME280;26708;50.304;19.028;2023-05-17T02:23:25;98013.94;;;13.44;70.90
40982;BME280;26708;50.304;19.028;2023-05-17T02:25:45;98035.50;;;13.60;70.90
40982;BME280;26708;50.304;19.028;2023-05-17T02:28:04;98034.59;;;13.61;70.75
40982;BME280;26708;50.304;19.028;2023-05-17T02:30:24;98019.88;;;13.52;70.60
40982;BME280;26708;50.304;19.028;2023-05-17T02:32:46;98017.38;;;13.48;70.97
40982;BME280;26708;50.304;19.028;2023-05-17T02:35:07;98020.09;;;13.43;71.08
40982;BME280;26708;50.304;19.028;2023-05-17T02:40:08;97945.88;;;12.93;71.08
40982;BME280;26708;50.304;19.028;2023-05-17T02:42:28;98028.19;;;13.36;71.08
40982;BME280;26708;50.304;19.028;2023-05-17T02:44:47;98009.31;;;13.17;70.51
40982;BME280;26708;50.304;19.028;2023-05-17T02:47:11;97932.47;;;12.67;70.64
40982;BME280;26708;50.304;19.028;2023-05-17T02:49:33;98026.81;;;13.18;70.97
40982;BME280;26708;50.304;19.028;2023-05-17T02:51:53;97981.13;;;12.83;70.90
40982;BME280;26708;50.304;19.028;2023-05-17T02:54:12;98024.41;;;13.08;71.10
40982;BME280;26708;50.304;19.028;2023-05-17T02:56:31;98032.28;;;13.06;71.32
40982;BME280;26708;50.304;19.028;2023-05-17T02:58:52;98030.53;;;13.05;71.49
40982;BME280;26708;50.304;19.028;2023-05-17T03:01:13;98037.47;;;13.11;71.67
40982;BME280;26708;50.304;19.028;2023-05-17T03:03:33;98024.28;;;13.14;71.55
40982;BME280;26708;50.304;19.028;2023-05-17T03:05:59;98025.06;;;13.17;71.65
40982;BME280;26708;50.304;19.028;2023-05-17T03:08:21;98029.34;;;13.21;71.43
40982;BME280;26708;50.304;19.028;2023-05-17T03:10:40;98020.66;;;13.18;71.00
40982;BME280;26708;50.304;19.028;2023-05-17T03:13:00;98029.44;;;13.17;71.16
40982;BME280;26708;50.304;19.028;2023-05-17T03:15:24;97999.19;;;12.98;71.09
40982;BME280;26708;50.304;19.028;2023-05-17T03:17:44;98032.16;;;13.14;71.43
40982;BME280;26708;50.304;19.028;2023-05-17T03:20:07;98024.50;;;13.02;71.41
40982;BME280;26708;50.304;19.028;2023-05-17T03:22:29;98038.25;;;13.14;71.33
40982;BME280;26708;50.304;19.028;2023-05-17T03:24:49;98043.53;;;13.14;71.45
40982;BME280;26708;50.304;19.028;2023-05-17T03:27:09;98040.03;;;13.14;71.27
40982;BME280;26708;50.304;19.028;2023-05-17T03:29:29;98047.94;;;13.12;71.17
40982;BME280;26708;50.304;19.028;2023-05-17T03:31:49;97984.00;;;12.71;71.15
40982;BME280;26708;50.304;19.028;2023-05-17T03:34:08;97962.38;;;12.58;71.26
40982;BME280;26708;50.304;19.028;2023-05-17T03:36:29;98055.72;;;13.17;71.42
40982;BME280;26708;50.304;19.028;2023-05-17T03:38:52;98060.13;;;13.16;70.98
40982;BME280;26708;50.304;19.028;2023-05-17T03:41:12;98064.53;;;13.14;71.11
40982;BME280;26708;50.304;19.028;2023-05-17T03:43:31;98071.63;;;13.11;71.22
40982;BME280;26708;50.304;19.028;2023-05-17T03:45:51;98068.03;;;13.15;71.40
40982;BME280;26708;50.304;19.028;2023-05-17T03:48:11;98068.06;;;13.13;71.01
40982;BME280;26708;50.304;19.028;2023-05-17T03:50:30;98068.97;;;13.12;70.96
40982;BME280;26708;50.304;19.028;2023-05-17T03:52:50;98068.09;;;13.12;71.06
40982;BME280;26708;50.304;19.028;2023-05-17T03:55:12;98071.53;;;13.15;71.09
40982;BME280;26708;50.304;19.028;2023-05-17T03:57:31;98072.50;;;13.11;70.83
40982;BME280;26708;50.304;19.028;2023-05-17T03:59:51;98031.06;;;12.80;70.82
40982;BME280;26708;50.304;19.028;2023-05-17T04:02:14;98028.59;;;12.74;71.20
40982;BME280;26708;50.304;19.028;2023-05-17T04:04:33;98097.91;;;13.11;70.97
40982;BME280;26708;50.304;19.028;2023-05-17T04:06:53;98094.38;;;13.12;71.04
40982;BME280;26708;50.304;19.028;2023-05-17T04:09:13;98099.72;;;13.07;70.32
40982;BME280;26708;50.304;19.028;2023-05-17T04:11:35;98089.28;;;13.03;70.75
40982;BME280;26708;50.304;19.028;2023-05-17T04:13:55;98001.06;;;12.49;70.48
40982;BME280;26708;50.304;19.028;2023-05-17T04:16:15;98072.97;;;12.86;70.51
40982;BME280;26708;50.304;19.028;2023-05-17T04:18:37;98002.34;;;12.28;70.35
40982;BME280;26708;50.304;19.028;2023-05-17T04:20:56;98065.84;;;12.47;70.52
40982;BME280;26708;50.304;19.028;2023-05-17T04:23:16;98110.84;;;12.76;70.98
40982;BME280;26708;50.304;19.028;2023-05-17T04:25:37;98081.34;;;12.60;70.91
40982;BME280;26708;50.304;19.028;2023-05-17T04:28:00;98113.34;;;12.82;71.24
40982;BME280;26708;50.304;19.028;2023-05-17T04:30:21;98099.25;;;12.84;71.09
40982;BME280;26708;50.304;19.028;2023-05-17T04:32:40;98114.19;;;12.84;71.19
40982;BME280;26708;50.304;19.028;2023-05-17T04:34:58;98089.84;;;12.74;71.14
40982;BME280;26708;50.304;19.028;2023-05-17T04:37:03;98107.06;;;12.89;70.82
40982;BME280;26708;50.304;19.028;2023-05-17T04:39:10;98102.75;;;12.86;70.74
40982;BME280;26708;50.304;19.028;2023-05-17T04:41:15;98083.88;;;12.66;70.54
40982;BME280;26708;50.304;19.028;2023-05-17T04:43:22;98094.25;;;12.72;70.79
40982;BME280;26708;50.304;19.028;2023-05-17T04:45:27;98036.34;;;12.33;70.38
40982;BME280;26708;50.304;19.028;2023-05-17T04:47:35;98092.63;;;12.65;70.63
40982;BME280;26708;50.304;19.028;2023-05-17T04:49:39;98108.03;;;12.83;70.87
40982;BME280;26708;50.304;19.028;2023-05-17T04:51:44;98108.03;;;12.85;70.73
40982;BME280;26708;50.304;19.028;2023-05-17T04:53:50;98108.84;;;12.87;70.66
40982;BME280;26708;50.304;19.028;2023-05-17T04:55:55;98107.94;;;12.89;70.75
40982;BME280;26708;50.304;19.028;2023-05-17T04:58:16;98107.00;;;12.92;70.61
40982;BME280;26708;50.304;19.028;2023-05-17T05:00:44;98028.28;;;12.43;70.25
40982;BME280;26708;50.304;19.028;2023-05-17T05:03:03;98117.53;;;12.90;70.23
40982;BME280;26708;50.304;19.028;2023-05-17T05:05:24;98082.97;;;12.67;70.36
40982;BME280;26708;50.304;19.028;2023-05-17T05:07:44;98034.50;;;12.39;70.71
40982;BME280;26708;50.304;19.028;2023-05-17T05:10:04;98131.41;;;12.97;70.36
40982;BME280;26708;50.304;19.028;2023-05-17T05:12:25;98011.19;;;12.24;69.79
40982;BME280;26708;50.304;19.028;2023-05-17T05:14:45;98139.38;;;12.92;69.75
40982;BME280;26708;50.304;19.028;2023-05-17T05:17:07;98140.28;;;12.93;69.88
40982;BME280;26708;50.304;19.028;2023-05-17T05:19:29;98141.19;;;12.90;69.68
40982;BME280;26708;50.304;19.028;2023-05-17T05:21:49;98106.59;;;12.69;69.71
40982;BME280;26708;50.304;19.028;2023-05-17T05:24:09;98022.75;;;12.13;69.80
40982;BME280;26708;50.304;19.028;2023-05-17T05:26:28;98119.75;;;12.66;69.82
40982;BME280;26708;50.304;19.028;2023-05-17T05:28:50;98078.22;;;12.40;69.78
40982;BME280;26708;50.304;19.028;2023-05-17T05:30:59;97890.78;;;11.11;69.78
40982;BME280;26708;50.304;19.028;2023-05-17T05:33:14;98004.72;;;11.90;70.13
40982;BME280;26708;50.304;19.028;2023-05-17T05:35:20;98142.34;;;12.74;69.98
40982;BME280;26708;50.304;19.028;2023-05-17T05:37:32;98125.94;;;12.63;70.31
40982;BME280;26708;50.304;19.028;2023-05-17T05:39:36;98161.47;;;12.82;70.47
40982;BME280;26708;50.304;19.028;2023-05-17T05:41:42;98164.06;;;12.85;70.27
40982;BME280;26708;50.304;19.028;2023-05-17T05:43:48;98177.22;;;12.84;70.15
40982;BME280;26708;50.304;19.028;2023-05-17T05:45:53;98168.44;;;12.85;69.92
40982;BME280;26708;50.304;19.028;2023-05-17T05:47:57;98168.53;;;12.79;69.87
40982;BME280;26708;50.304;19.028;2023-05-17T05:50:20;98137.25;;;12.67;69.99
40982;BME280;26708;50.304;19.028;2023-05-17T05:52:46;98176.22;;;12.89;69.66
40982;BME280;26708;50.304;19.028;2023-05-17T05:55:06;98146.81;;;12.69;69.71
40982;BME280;26708;50.304;19.028;2023-05-17T05:57:26;97913.06;;;11.35;69.45
40982;BME280;26708;50.304;19.028;2023-05-17T05:59:46;98196.25;;;12.95;69.67
40982;BME280;26708;50.304;19.028;2023-05-17T06:02:05;98124.34;;;12.53;69.64
40982;BME280;26708;50.304;19.028;2023-05-17T06:04:25;98180.81;;;12.78;69.17
40982;BME280;26708;50.304;19.028;2023-05-17T06:06:48;98202.47;;;12.91;69.10
40982;BME280;26708;50.304;19.028;2023-05-17T06:09:07;98210.38;;;12.89;69.19
40982;BME280;26708;50.304;19.028;2023-05-17T06:11:27;98194.78;;;12.80;69.49
40982;BME280;26708;50.304;19.028;2023-05-17T06:13:47;98141.91;;;12.51;69.38
40982;BME280;26708;50.304;19.028;2023-05-17T06:16:06;98211.28;;;12.88;69.17
40982;BME280;26708;50.304;19.028;2023-05-17T06:18:26;98038.91;;;11.86;69.23
40982;BME280;26708;50.304;19.028;2023-05-17T06:20:45;98085.09;;;11.94;69.17
40982;BME280;26708;50.304;19.028;2023-05-17T06:23:07;98218.44;;;12.79;69.30
40982;BME280;26708;50.304;19.028;2023-05-17T06:25:27;98182.91;;;12.60;69.49
40982;BME280;26708;50.304;19.028;2023-05-17T06:27:46;98215.81;;;12.79;69.63
40982;BME280;26708;50.304;19.028;2023-05-17T06:30:07;98214.09;;;12.76;69.61
40982;BME280;26708;50.304;19.028;2023-05-17T06:32:27;98215.72;;;12.83;69.62
40982;BME280;26708;50.304;19.028;2023-05-17T06:34:47;98232.38;;;12.84;69.47
40982;BME280;26708;50.304;19.028;2023-05-17T06:37:06;98226.25;;;12.83;69.55
40982;BME280;26708;50.304;19.028;2023-05-17T06:39:28;98044.53;;;11.61;69.21
40982;BME280;26708;50.304;19.028;2023-05-17T06:41:47;98210.91;;;12.58;69.14
40982;BME280;26708;50.304;19.028;2023-05-17T06:44:07;98240.41;;;12.73;69.48
40982;BME280;26708;50.304;19.028;2023-05-17T06:46:27;98232.53;;;12.75;69.86
40982;BME280;26708;50.304;19.028;2023-05-17T06:48:46;98240.34;;;12.78;69.70
40982;BME280;26708;50.304;19.028;2023-05-17T06:51:05;98207.44;;;12.57;70.02
40982;BME280;26708;50.304;19.028;2023-05-17T06:53:25;98119.97;;;12.04;69.18
40982;BME280;26708;50.304;19.028;2023-05-17T06:55:47;98166.91;;;12.20;69.12
40982;BME280;26708;50.304;19.028;2023-05-17T06:58:07;98002.44;;;11.14;69.16
40982;BME280;26708;50.304;19.028;2023-05-17T07:00:29;98257.09;;;12.71;69.24
40982;BME280;26708;50.304;19.028;2023-05-17T07:02:49;98223.38;;;12.45;68.94
40982;BME280;26708;50.304;19.028;2023-05-17T07:05:09;98261.59;;;12.61;68.78
40982;BME280;26708;50.304;19.028;2023-05-17T07:07:28;98273.06;;;12.59;68.71
40982;BME280;26708;50.304;19.028;2023-05-17T07:09:48;98269.63;;;12.52;68.56
40982;BME280;26708;50.304;19.028;2023-05-17T07:12:10;98138.00;;;11.65;68.78
40982;BME280;26708;50.304;19.028;2023-05-17T07:14:29;98029.88;;;10.84;68.46
40982;BME280;26708;50.304;19.028;2023-05-17T07:16:35;98289.94;;;12.43;68.41
40982;BME280;26708;50.304;19.028;2023-05-17T07:18:39;98281.31;;;12.33;68.25
40982;BME280;26708;50.304;19.028;2023-05-17T07:20:44;98291.75;;;12.35;68.59
40982;BME280;26708;50.304;19.028;2023-05-17T07:22:49;98242.47;;;11.93;68.25
40982;BME280;26708;50.304;19.028;2023-05-17T07:24:54;98304.13;;;12.27;68.31
40982;BME280;26708;50.304;19.028;2023-05-17T07:26:58;98291.03;;;12.25;68.46
40982;BME280;26708;50.304;19.028;2023-05-17T07:29:06;98051.03;;;10.66;68.56
40982;BME280;26708;50.304;19.028;2023-05-17T07:31:11;98304.25;;;12.19;68.02
40982;BME280;26708;50.304;19.028;2023-05-17T07:33:17;98308.66;;;12.14;67.98
40982;BME280;26708;50.304;19.028;2023-05-17T07:35:22;98307.88;;;12.08;68.08
40982;BME280;26708;50.304;19.028;2023-05-17T07:37:41;98306.22;;;12.04;68.46
40982;BME280;26708;50.304;19.028;2023-05-17T07:40:01;98318.47;;;11.99;68.40
40982;BME280;26708;50.304;19.028;2023-05-17T07:42:20;98241.28;;;11.47;68.37
40982;BME280;26708;50.304;19.028;2023-05-17T07:44:43;98227.41;;;11.38;68.69
40982;BME280;26708;50.304;19.028;2023-05-17T07:47:04;98263.88;;;11.60;69.10
40982;BME280;26708;50.304;19.028;2023-05-17T07:49:23;98342.97;;;11.98;69.15
40982;BME280;26708;50.304;19.028;2023-05-17T07:51:44;98323.72;;;11.99;68.89
40982;BME280;26708;50.304;19.028;2023-05-17T07:54:04;98327.22;;;11.98;68.87
40982;BME280;26708;50.304;19.028;2023-05-17T07:56:24;98331.59;;;11.96;68.92
40982;BME280;26708;50.304;19.028;2023-05-17T07:58:29;98335.09;;;11.96;69.03
40982;BME280;26708;50.304;19.028;2023-05-17T08:00:36;98287.38;;;11.68;69.04
40982;BME280;26708;50.304;19.028;2023-05-17T08:02:42;98306.44;;;11.82;69.10
40982;BME280;26708;50.304;19.028;2023-05-17T08:04:47;98347.28;;;12.03;69.03
40982;BME280;26708;50.304;19.028;2023-05-17T08:06:51;98347.31;;;11.99;69.23
40982;BME280;26708;50.304;19.028;2023-05-17T08:08:56;98231.88;;;11.30;68.84
40982;BME280;26708;50.304;19.028;2023-05-17T08:11:01;98106.09;;;10.53;69.03
40982;BME280;26708;50.304;19.028;2023-05-17T08:13:05;98353.44;;;12.02;69.30
40982;BME280;26708;50.304;19.028;2023-05-17T08:15:10;98366.50;;;12.05;69.41
40982;BME280;26708;50.304;19.028;2023-05-17T08:17:18;98343.91;;;11.93;69.15
40982;BME280;26708;50.304;19.028;2023-05-17T08:19:22;98270.97;;;11.51;68.98
40982;BME280;26708;50.304;19.028;2023-05-17T08:21:27;98374.38;;;12.05;69.11
40982;BME280;26708;50.304;19.028;2023-05-17T08:23:32;98351.84;;;11.85;68.64
40982;BME280;26708;50.304;19.028;2023-05-17T08:25:37;98379.66;;;12.01;68.73
40982;BME280;26708;50.304;19.028;2023-05-17T08:27:42;98384.03;;;11.99;69.10
40982;BME280;26708;50.304;19.028;2023-05-17T08:29:47;98388.38;;;12.03;69.50
40982;BME280;26708;50.304;19.028;2023-05-17T08:31:52;98384.00;;;12.05;69.29
40982;BME280;26708;50.304;19.028;2023-05-17T08:34:00;98316.19;;;11.69;69.33
40982;BME280;26708;50.304;19.028;2023-05-17T08:36:06;98377.84;;;12.07;69.14
40982;BME280;26708;50.304;19.028;2023-05-17T08:38:11;98373.47;;;12.06;69.12
40982;BME280;26708;50.304;19.028;2023-05-17T08:40:16;98369.97;;;12.09;69.34
40982;BME280;26708;50.304;19.028;2023-05-17T08:42:23;98373.41;;;12.11;69.36
40982;BME280;26708;50.304;19.028;2023-05-17T08:44:28;98345.59;;;11.96;69.21
40982;BME280;26708;50.304;19.028;2023-05-17T08:46:34;98373.47;;;12.09;68.69
40982;BME280;26708;50.304;19.028;2023-05-17T08:48:42;98267.56;;;11.43;68.96
40982;BME280;26708;50.304;19.028;2023-05-17T08:50:53;98382.28;;;12.02;68.58
40982;BME280;26708;50.304;19.028;2023-05-17T08:53:01;98387.53;;;12.02;68.71
40982;BME280;26708;50.304;19.028;2023-05-17T08:55:07;98396.28;;;12.02;68.66
40982;BME280;26708;50.304;19.028;2023-05-17T08:57:14;98332.75;;;11.71;68.95
40982;BME280;26708;50.304;19.028;2023-05-17T08:59:21;98394.50;;;12.05;68.81
40982;BME280;26708;50.304;19.028;2023-05-17T09:01:28;98244.47;;;10.93;68.54
40982;BME280;26708;50.304;19.028;2023-05-17T09:03:34;98299.00;;;11.44;68.47
40982;BME280;26708;50.304;19.028;2023-05-17T09:05:42;98396.31;;;11.95;68.44
40982;BME280;26708;50.304;19.028;2023-05-17T09:07:50;98355.50;;;11.71;68.69
40982;BME280;26708;50.304;19.028;2023-05-17T09:09:55;98397.22;;;11.94;68.61
40982;BME280;26708;50.304;19.028;2023-05-17T09:11:59;98397.22;;;11.93;68.33
40982;BME280;26708;50.304;19.028;2023-05-17T09:14:06;98379.84;;;11.80;68.48
40982;BME280;26708;50.304;19.028;2023-05-17T09:16:14;98349.47;;;11.63;68.45
40982;BME280;26708;50.304;19.028;2023-05-17T09:18:28;98410.28;;;11.97;68.36
40982;BME280;26708;50.304;19.028;2023-05-17T09:20:35;98406.75;;;11.98;68.19
40982;BME280;26708;50.304;19.028;2023-05-17T09:22:39;98289.53;;;11.30;68.07
40982;BME280;26708;50.304;19.028;2023-05-17T09:24:48;98413.78;;;11.95;67.67
40982;BME280;26708;50.304;19.028;2023-05-17T09:27:00;98419.97;;;11.91;67.67
40982;BME280;26708;50.304;19.028;2023-05-17T09:29:09;98420.81;;;11.93;68.12
40982;BME280;26708;50.304;19.028;2023-05-17T09:31:16;98416.47;;;11.92;67.97
40982;BME280;26708;50.304;19.028;2023-05-17T09:33:21;98391.31;;;11.72;68.05
40982;BME280;26708;50.304;19.028;2023-05-17T09:35:41;98408.75;;;11.77;68.36
40982;BME280;26708;50.304;19.028;2023-05-17T09:38:05;98424.34;;;11.90;68.54
40982;BME280;26708;50.304;19.028;2023-05-17T09:40:28;98392.16;;;11.75;68.49
40982;BME280;26708;50.304;19.028;2023-05-17T09:42:48;98342.63;;;11.50;68.70
40982;BME280;26708;50.304;19.028;2023-05-17T09:45:08;98392.06;;;11.82;68.64
40982;BME280;26708;50.304;19.028;2023-05-17T09:47:30;98393.81;;;11.85;68.79
40982;BME280;26708;50.304;19.028;2023-05-17T09:49:50;98427.78;;;12.02;68.39
40982;BME280;26708;50.304;19.028;2023-05-17T09:52:10;98371.28;;;11.66;68.43
40982;BME280;26708;50.304;19.028;2023-05-17T09:54:20;98429.50;;;12.01;68.43
40982;BME280;26708;50.304;19.028;2023-05-17T09:56:30;98436.47;;;12.03;68.67
40982;BME280;26708;50.304;19.028;2023-05-17T09:58:36;98447.88;;;12.01;68.36
40982;BME280;26708;50.304;19.028;2023-05-17T10:00:42;98389.56;;;11.72;68.18
40982;BME280;26708;50.304;19.028;2023-05-17T10:02:49;98443.47;;;12.00;68.25
40982;BME280;26708;50.304;19.028;2023-05-17T10:04:56;98416.56;;;11.82;68.14
40982;BME280;26708;50.304;19.028;2023-05-17T10:07:04;98443.53;;;11.95;68.15
40982;BME280;26708;50.304;19.028;2023-05-17T10:09:13;98446.19;;;11.91;68.03
40982;BME280;26708;50.304;19.028;2023-05-17T10:11:21;98447.09;;;11.90;67.89
40982;BME280;26708;50.304;19.028;2023-05-17T10:13:43;98455.81;;;11.90;67.94
40982;BME280;26708;50.304;19.028;2023-05-17T10:15:54;98447.06;;;11.91;68.10
40982;BME280;26708;50.304;19.028;2023-05-17T10:18:01;98443.63;;;11.83;67.88
40982;BME280;26708;50.304;19.028;2023-05-17T10:20:08;98386.28;;;11.52;67.68
40982;BME280;26708;50.304;19.028;2023-05-17T10:22:14;98448.88;;;11.87;67.92
40982;BME280;26708;50.304;19.028;2023-05-17T10:24:22;98444.53;;;11.84;67.36
40982;BME280;26708;50.304;19.028;2023-05-17T10:26:31;98449.81;;;11.81;67.67
40982;BME280;26708;50.304;19.028;2023-05-17T10:28:39;98449.81;;;11.81;67.61
40982;BME280;26708;50.304;19.028;2023-05-17T10:31:02;98422.84;;;11.64;67.71
40982;BME280;26708;50.304;19.028;2023-05-17T10:33:23;98384.72;;;11.32;67.35
40982;BME280;26708;50.304;19.028;2023-05-17T10:35:46;98462.03;;;11.79;67.23
40982;BME280;26708;50.304;19.028;2023-05-17T10:38:07;98462.09;;;11.75;67.23
40982;BME280;26708;50.304;19.028;2023-05-17T10:40:29;98469.97;;;11.72;67.68
40982;BME280;26708;50.304;19.028;2023-05-17T10:42:55;98446.47;;;11.60;67.66
40982;BME280;26708;50.304;19.028;2023-05-17T10:45:19;98321.34;;;10.89;67.85
40982;BME280;26708;50.304;19.028;2023-05-17T10:47:42;98370.84;;;11.18;67.64
40982;BME280;26708;50.304;19.028;2023-05-17T10:49:56;98473.47;;;11.72;67.01
40982;BME280;26708;50.304;19.028;2023-05-17T10:52:11;98396.09;;;11.28;67.63
40982;BME280;26708;50.304;19.028;2023-05-17T10:54:17;98327.44;;;10.90;67.81
40982;BME280;26708;50.304;19.028;2023-05-17T10:56:22;98481.22;;;11.82;67.69
40982;BME280;26708;50.304;19.028;2023-05-17T10:58:27;98484.69;;;11.88;67.45
40982;BME280;26708;50.304;19.028;2023-05-17T11:00:37;98406.44;;;11.44;67.50
40982;BME280;26708;50.304;19.028;2023-05-17T11:02:43;98490.78;;;11.91;66.91
40982;BME280;26708;50.304;19.028;2023-05-17T11:04:50;98499.50;;;11.93;67.06
40982;BME280;26708;50.304;19.028;2023-05-17T11:07:19;98473.41;;;11.80;66.81
40982;BME280;26708;50.304;19.028;2023-05-17T11:09:31;98500.34;;;11.95;66.80
40982;BME280;26708;50.304;19.028;2023-05-17T11:11:35;98476.88;;;11.82;67.12
40982;BME280;26708;50.304;19.028;2023-05-17T11:13:44;98509.94;;;11.97;67.16
40982;BME280;26708;50.304;19.028;2023-05-17T11:16:06;98509.09;;;11.97;66.90
40982;BME280;26708;50.304;19.028;2023-05-17T11:18:11;98503.00;;;11.93;67.22
40982;BME280;26708;50.304;19.028;2023-05-17T11:20:33;98509.94;;;12.02;67.37
40982;BME280;26708;50.304;19.028;2023-05-17T11:22:40;98512.56;;;12.05;67.18
40982;BME280;26708;50.304;19.028;2023-05-17T11:24:50;98514.28;;;12.04;66.59
40982;BME280;26708;50.304;19.028;2023-05-17T11:26:57;98505.56;;;12.02;67.03
40982;BME280;26708;50.304;19.028;2023-05-17T11:29:07;98509.06;;;12.00;66.79
40982;BME280;26708;50.304;19.028;2023-05-17T11:31:15;98514.31;;;11.98;66.52
40982;BME280;26708;50.304;19.028;2023-05-17T11:33:36;98482.22;;;11.74;66.32
40982;BME280;26708;50.304;19.028;2023-05-17T11:35:44;98508.28;;;11.89;66.54
40982;BME280;26708;50.304;19.028;2023-05-17T11:37:51;98517.06;;;11.85;66.88
40982;BME280;26708;50.304;19.028;2023-05-17T11:40:04;98467.53;;;11.52;67.20
40982;BME280;26708;50.304;19.028;2023-05-17T11:42:23;98517.94;;;11.86;67.46
40982;BME280;26708;50.304;19.028;2023-05-17T11:44:29;98514.41;;;11.88;67.03
40982;BME280;26708;50.304;19.028;2023-05-17T11:46:38;98381.38;;;11.10;66.87